Flight Track Log - Related Links

Times and Time Zones

All times are in EDT time to prevent confusion due to time zone crossing. See the CHH7967 flight status page for this flight to view local times or setup timezone preferences in your user account.

Time Position Orientation Groundspeed Altitude Reporting Facility
EDT Latitude Longitude Course Direction KTS MPH feet Rate Location/Type
Fri 10:50:00 PM 44.5499 112.8543 330° Northwest  Level Estimated
Fri 10:51:00 PM 44.6233 112.7874 327° Northwest  Level Estimated
Fri 10:52:00 PM 44.6967 112.7203 327° Northwest  Level Estimated
Fri 10:53:00 PM 44.7700 112.6531 327° Northwest  Level Estimated
Fri 10:54:00 PM 44.8433 112.5857 327° Northwest  Level Estimated
Fri 10:55:00 PM 44.9165 112.5182 327° Northwest  Level Estimated
Fri 10:56:00 PM 44.9898 112.4504 327° Northwest  Level Estimated
Fri 10:57:00 PM 45.0630 112.3825 327° Northwest  Level Estimated
Fri 10:58:00 PM 45.1361 112.3144 327° Northwest  Level Estimated
Fri 10:59:00 PM 45.2092 112.2462 327° Northwest  Level Estimated
Fri 11:00:00 PM 45.2822 112.1777 327° Northwest  Level Estimated
Fri 11:01:00 PM 45.3553 112.1091 327° Northwest  Level Estimated
Fri 11:02:00 PM 45.4282 112.0403 327° Northwest  Level Estimated
Fri 11:03:00 PM 45.5012 111.9714 326° Northwest  Level Estimated
Fri 11:04:00 PM 45.5741 111.9022 326° Northwest  Level Estimated
Fri 11:05:00 PM 45.6469 111.8329 326° Northwest  Level Estimated
Fri 11:06:00 PM 45.7197 111.7634 326° Northwest  Level Estimated
Fri 11:07:00 PM 45.7925 111.6937 326° Northwest  Level Estimated
Fri 11:08:00 PM 45.8652 111.6238 326° Northwest  Level Estimated
Fri 11:09:00 PM 45.9379 111.5538 326° Northwest  Level Estimated
Fri 11:10:00 PM 46.0105 111.4835 326° Northwest  Level Estimated
Fri 11:11:00 PM 46.0831 111.4131 326° Northwest  Level Estimated
Fri 11:12:00 PM 46.1557 111.3425 326° Northwest  Level Estimated
Fri 11:13:00 PM 46.2282 111.2717 326° Northwest  Level Estimated
Fri 11:14:00 PM 46.3007 111.2007 326° Northwest  Level Estimated
Fri 11:15:00 PM 46.3731 111.1296 326° Northwest  Level Estimated
Fri 11:16:00 PM 46.4454 111.0582 326° Northwest  Level Estimated
Fri 11:17:00 PM 46.5178 110.9867 326° Northwest  Level Estimated
Fri 11:18:00 PM 46.5901 110.9149 326° Northwest  Level Estimated
Fri 11:19:00 PM 46.6623 110.8430 326° Northwest  Level Estimated
Fri 11:20:00 PM 46.7345 110.7709 326° Northwest  Level Estimated
Fri 11:21:00 PM 46.8067 110.6986 326° Northwest  Level Estimated
Fri 11:22:00 PM 46.8788 110.6261 326° Northwest  Level Estimated
Fri 11:23:00 PM 46.9508 110.5534 325° Northwest  Level Estimated
Fri 11:24:00 PM 47.0228 110.4805 325° Northwest  Level Estimated
Fri 11:25:00 PM 47.0948 110.4074 325° Northwest  Level Estimated
Fri 11:26:00 PM 47.1667 110.3341 325° Northwest  Level Estimated
Fri 11:27:00 PM 47.2386 110.2606 325° Northwest  Level Estimated
Fri 11:28:00 PM 47.3104 110.1869 325° Northwest  Level Estimated
Fri 11:29:00 PM 47.3822 110.1130 325° Northwest  Level Estimated
Fri 11:30:00 PM 47.4539 110.0389 325° Northwest  Level Estimated
Fri 11:31:00 PM 47.5256 109.9646 325° Northwest  Level Estimated
Fri 11:32:00 PM 47.5973 109.8901 325° Northwest  Level Estimated
Fri 11:33:00 PM 47.6688 109.8154 325° Northwest  Level Estimated
Fri 11:34:00 PM 47.7404 109.7405 325° Northwest  Level Estimated
Fri 11:35:00 PM 47.8119 109.6654 325° Northwest  Level Estimated
Fri 11:36:00 PM 47.8833 109.5900 325° Northwest  Level Estimated
Fri 11:37:00 PM 47.9547 109.5145 325° Northwest  Level Estimated
Fri 11:38:00 PM 48.0261 109.4388 325° Northwest  Level Estimated
Fri 11:39:00 PM 48.0973 109.3628 325° Northwest  Level Estimated
Fri 11:40:00 PM 48.1686 109.2867 325° Northwest  Level Estimated
Fri 11:41:00 PM 48.2398 109.2103 324° Northwest  Level Estimated
Fri 11:42:00 PM 48.3109 109.1337 324° Northwest  Level Estimated
Fri 11:43:00 PM 48.3820 109.0569 324° Northwest  Level Estimated
Fri 11:44:00 PM 48.4530 108.9799 324° Northwest  Level Estimated
Fri 11:45:00 PM 48.5240 108.9027 324° Northwest  Level Estimated
Fri 11:46:00 PM 48.5950 108.8252 324° Northwest  Level Estimated
Fri 11:47:00 PM 48.6659 108.7476 324° Northwest  Level Estimated
Fri 11:48:00 PM 48.7367 108.6697 324° Northwest  Level Estimated
Fri 11:49:00 PM 48.8075 108.5916 324° Northwest  Level Estimated
Fri 11:50:00 PM 48.8782 108.5132 324° Northwest  Level Estimated
Fri 11:51:00 PM 48.9489 108.4347 324° Northwest  Level Estimated
Fri 11:52:00 PM 49.0195 108.3559 324° Northwest  Level Estimated
Fri 11:53:00 PM 49.0900 108.2769 324° Northwest  Level Estimated
Fri 11:54:00 PM 49.1605 108.1977 324° Northwest  Level Estimated
Fri 11:55:00 PM 49.2310 108.1183 324° Northwest  Level Estimated
Fri 11:56:00 PM 49.3014 108.0386 324° Northwest  Level Estimated
Fri 11:57:00 PM 49.3717 107.9587 324° Northwest  Level Estimated
Fri 11:58:00 PM 49.4421 107.8786 323° Northwest  Level Estimated
Fri 11:59:00 PM 49.5123 107.7982 323° Northwest  Level Estimated
Sat 12:00:00 AM 49.5825 107.7177 323° Northwest  Level Estimated
Sat 12:01:00 AM 49.6526 107.6368 323° Northwest  Level Estimated
Sat 12:02:00 AM 49.7226 107.5558 323° Northwest  Level Estimated
Sat 12:03:00 AM 49.7927 107.4745 323° Northwest  Level Estimated
Sat 12:04:00 AM 49.8626 107.3930 323° Northwest  Level Estimated
Sat 12:05:00 AM 49.9325 107.3112 323° Northwest  Level Estimated
Sat 12:06:00 AM 50.0023 107.2292 323° Northwest  Level Estimated
Sat 12:07:00 AM 50.0721 107.1470 323° Northwest  Level Estimated
Sat 12:08:00 AM 50.1419 107.0645 323° Northwest  Level Estimated
Sat 12:09:00 AM 50.2115 106.9818 323° Northwest  Level Estimated
Sat 12:10:00 AM 50.2811 106.8988 323° Northwest  Level Estimated
Sat 12:11:00 AM 50.3507 106.8157 323° Northwest  Level Estimated
Sat 12:12:00 AM 50.4202 106.7322 323° Northwest  Level Estimated
Sat 12:13:00 AM 50.4896 106.6485 323° Northwest  Level Estimated
Sat 12:14:00 AM 50.5589 106.5646 322° Northwest  Level Estimated
Sat 12:15:00 AM 50.6283 106.4804 322° Northwest  Level Estimated
Sat 12:16:00 AM 50.6975 106.3960 322° Northwest  Level Estimated
Sat 12:17:00 AM 50.7667 106.3113 322° Northwest  Level Estimated
Sat 12:18:00 AM 50.8358 106.2264 322° Northwest  Level Estimated
Sat 12:19:00 AM 50.9049 106.1412 322° Northwest  Level Estimated
Sat 12:20:00 AM 50.9739 106.0558 322° Northwest  Level Estimated
Sat 12:21:00 AM 51.0428 105.9701 322° Northwest  Level Estimated
Sat 12:22:00 AM 51.1117 105.8841 322° Northwest  Level Estimated
Sat 12:23:00 AM 51.1805 105.7979 322° Northwest  Level Estimated
Sat 12:24:00 AM 51.2492 105.7115 322° Northwest  Level Estimated
Sat 12:25:00 AM 51.3179 105.6248 322° Northwest  Level Estimated
Sat 12:26:00 AM 51.3865 105.5378 322° Northwest  Level Estimated
Sat 12:27:00 AM 51.4551 105.4505 322° Northwest  Level Estimated
Sat 12:28:00 AM 51.5236 105.3631 322° Northwest  Level Estimated
Sat 12:29:00 AM 51.5920 105.2753 321° Northwest  Level Estimated
Sat 12:30:00 AM 51.6604 105.1873 321° Northwest  Level Estimated
Sat 12:31:00 AM 51.7286 105.0990 321° Northwest  Level Estimated
Sat 12:32:00 AM 51.7969 105.0104 321° Northwest  Level Estimated
Sat 12:33:00 AM 51.8650 104.9216 321° Northwest  Level Estimated
Sat 12:34:00 AM 51.9331 104.8325 321° Northwest  Level Estimated
Sat 12:35:00 AM 52.0011 104.7431 321° Northwest  Level Estimated
Sat 12:36:00 AM 52.0691 104.6535 321° Northwest  Level Estimated
Sat 12:37:00 AM 52.1370 104.5636 321° Northwest  Level Estimated
Sat 12:38:00 AM 52.2048 104.4734 321° Northwest  Level Estimated
Sat 12:39:00 AM 52.2680 104.3890 321° Northwest  Level Estimated
Sat 12:40:00 AM 52.2680 104.3890 North  Level Estimated
Sat 12:41:00 AM 52.2680 104.3890 North  Level Estimated
Sat 12:42:00 AM 52.2680 104.3890 North  Level Estimated
Sat 12:43:00 AM 52.2680 104.3890 North  Level Estimated
Sat 12:44:00 AM 52.2680 104.3890 North  Level Estimated
Sat 12:45:00 AM 52.2680 104.3890 North  Level Estimated
Sat 12:46:00 AM 52.2680 104.3890 North  Level Estimated
Sat 12:47:00 AM 52.2680 104.3890 North  Level Estimated
Sat 12:48:00 AM 52.2680 104.3890 North  Level Estimated
Sat 12:49:00 AM 52.2680 104.3890 North  Level Estimated
Sat 12:50:00 AM 52.2680 104.3890 North  Level Estimated
Sat 12:51:00 AM 52.2680 104.3890 North  Level Estimated
Sat 12:52:00 AM 52.2680 104.3890 North  Level Estimated
Sat 12:53:00 AM 52.2680 104.3890 North  Level Estimated
Sat 12:54:00 AM 52.2680 104.3890 North  Level Estimated
Sat 12:55:00 AM 52.2680 104.3890 North  Level Estimated

Login

Don't have an account? Register now (free) for customized features, flight alerts, and more!